Terminal Aerodrome Forecast
Issued by NWS Wakefield, VA

Home | Current Version | Previous Version | Text Only | Print | Product List | Glossary On
Versions: 1 2 3 4 5 6 7 8 9 10 11 12
000
FTUS41 KAKQ 201700
TAFORF
TAF
KORF 201740Z 2018/2118 03005KT P6SM SCT040 OVC100
     FM202000 04005KT P6SM VCSH SCT030 OVC080
     FM202200 04005KT P6SM BKN050
     FM211400 03008KT P6SM SCT050=

USA.gov is the U.S. government's official web portal to all federal, state and local government web resources and services.